Terminal Aerodrome Forecast
Issued by NWS

Home | Current Version | Previous Version | Text Only | Print | Product List | Glossary On
Versions: 1 2 3 4 5 6 7 8 9 10 11 12 13 14 15 16 17
000
FTUS41 KCAR 241138
TAFPQI
TAF
KPQI 241138Z 2412/2512 15006KT 6SM BR BKN003
      TEMPO 2412/2413 3SM BR OVC003
     FM241300 15006KT P6SM BKN200
     FM242000 15006KT P6SM BKN060
     FM250300 15006KT P6SM VCSH OVC025
     FM250800 18006KT P6SM VCSH OVC010=

USA.gov is the U.S. government's official web portal to all federal, state and local government web resources and services.